Time;durP1;ratioP1;P1;durP2;ratioP2;P2;SDS_P1;SDS_P2;PMS_P1;PMS_P2;Temp;Humidity;BMP_temperature;BMP_pressure;BME280_temperature;BME280_humidity;BME280_pressure;Samples;Min_cycle;Max_cycle;Signal;HPM_P1;HPM_P2
2023/03/31 00:00:26;;;;;;;9.00;2.00;;;;;;;;;;5036274;28;20193;-77
2023/03/31 00:02:53;;;;;;;5.93;1.88;;;;;;;;;;5036557;28;20402;-78
2023/03/31 00:05:20;;;;;;;5.43;1.85;;;;;;;;;;5035572;28;20225;-78
2023/03/31 00:07:47;;;;;;;3.78;1.25;;;;;;;;;;5035184;28;20217;-79
2023/03/31 00:10:14;;;;;;;4.78;2.40;;;;;;;;;;5035193;28;20601;-79
2023/03/31 00:12:40;;;;;;;4.97;1.85;;;;;;;;;;5034901;28;20638;-79
2023/03/31 00:15:06;;;;;;;7.70;1.80;;;;;;;;;;5034751;28;20174;-80
2023/03/31 00:17:32;;;;;;;5.57;2.03;;;;;;;;;;5035138;28;20719;-80
2023/03/31 00:20:02;;;;;;;3.80;1.33;;;;;;;;;;5035419;28;20189;-80
2023/03/31 00:22:28;;;;;;;5.15;1.42;;;;;;;;;;5034931;28;20460;-79
2023/03/31 00:24:54;;;;;;;4.87;1.40;;;;;;;;;;5035519;28;20205;-79
2023/03/31 00:27:20;;;;;;;5.37;1.20;;;;;;;;;;5033783;28;20467;-79
2023/03/31 00:29:49;;;;;;;4.50;1.50;;;;;;;;;;5034988;28;20912;-79
2023/03/31 00:32:15;;;;;;;16.70;1.83;;;;;;;;;;5035382;28;20401;-79
2023/03/31 00:34:43;;;;;;;5.70;1.27;;;;;;;;;;5034976;28;20193;-78
2023/03/31 00:37:13;;;;;;;4.47;1.52;;;;;;;;;;5034433;28;20417;-78
2023/03/31 00:39:40;;;;;;;7.68;1.90;;;;;;;;;;5035341;28;20184;-78
2023/03/31 00:42:07;;;;;;;6.78;1.30;;;;;;;;;;5034560;28;20185;-79
2023/03/31 00:44:36;;;;;;;4.00;1.85;;;;;;;;;;5034869;28;20185;-79
2023/03/31 00:47:06;;;;;;;3.55;1.73;;;;;;;;;;5034407;28;20214;-79
2023/03/31 00:49:32;;;;;;;6.95;1.50;;;;;;;;;;5035143;28;20186;-78
2023/03/31 00:52:05;;;;;;;9.18;2.05;;;;;;;;;;5035336;28;20178;-78
2023/03/31 00:54:32;;;;;;;8.77;1.63;;;;;;;;;;5034595;28;20622;-79
2023/03/31 00:57:02;;;;;;;8.80;1.70;;;;;;;;;;5034893;28;20194;-78
2023/03/31 00:59:30;;;;;;;11.05;1.63;;;;;;;;;;5034818;28;20189;-74
2023/03/31 01:02:01;;;;;;;7.53;1.77;;;;;;;;;;5036379;28;20286;-74
2023/03/31 01:04:28;;;;;;;2.67;1.63;;;;;;;;;;5036433;28;20190;-74
2023/03/31 01:06:59;;;;;;;2.72;1.10;;;;;;;;;;5036824;28;20224;-74
2023/03/31 01:09:29;;;;;;;7.28;1.52;;;;;;;;;;5036762;28;20313;-74
2023/03/31 01:11:56;;;;;;;9.95;1.95;;;;;;;;;;5037029;28;20174;-74
2023/03/31 01:14:22;;;;;;;4.05;1.55;;;;;;;;;;5036123;28;20171;-74
2023/03/31 01:16:48;;;;;;;8.40;1.52;;;;;;;;;;5036625;28;20236;-74
2023/03/31 01:19:20;;;;;;;9.33;1.90;;;;;;;;;;5037200;28;20179;-74
2023/03/31 01:21:46;;;;;;;8.45;2.50;;;;;;;;;;5036627;28;20397;-74
2023/03/31 01:24:34;;;;;;;4.80;1.70;;;;;;;;;;5036331;28;20249;-74
2023/03/31 01:27:00;;;;;;;4.03;1.70;;;;;;;;;;5036823;28;20440;-74
2023/03/31 01:29:26;;;;;;;4.50;1.70;;;;;;;;;;5036654;28;20178;-74
2023/03/31 01:32:00;;;;;;;4.78;2.00;;;;;;;;;;5036411;28;20417;-74
2023/03/31 01:34:45;;;;;;;9.30;2.53;;;;;;;;;;5036401;28;20184;-74
2023/03/31 01:37:29;;;;;;;5.82;1.70;;;;;;;;;;5036445;28;20182;-74
2023/03/31 01:39:58;;;;;;;8.65;2.67;;;;;;;;;;5040794;28;20178;-74
2023/03/31 01:42:31;;;;;;;12.20;1.90;;;;;;;;;;5039992;28;20177;-74
2023/03/31 01:45:02;;;;;;;11.55;2.08;;;;;;;;;;5039634;28;20174;-74
2023/03/31 01:47:31;;;;;;;8.90;1.90;;;;;;;;;;5039935;28;20239;-74
2023/03/31 01:50:04;;;;;;;8.43;2.35;;;;;;;;;;5039807;28;20192;-74
2023/03/31 01:52:45;;;;;;;18.05;2.92;;;;;;;;;;5039509;28;20279;-73
2023/03/31 01:55:23;;;;;;;6.88;2.63;;;;;;;;;;5040360;28;20190;-74
2023/03/31 01:57:53;;;;;;;8.25;2.40;;;;;;;;;;5040250;28;20283;-73
2023/03/31 02:00:23;;;;;;;8.02;2.35;;;;;;;;;;5039446;28;20190;-73
2023/03/31 02:02:56;;;;;;;7.28;2.00;;;;;;;;;;5039910;28;20230;-74
2023/03/31 02:05:25;;;;;;;8.70;2.38;;;;;;;;;;5039946;28;20162;-74
2023/03/31 02:08:17;;;;;;;9.38;2.42;;;;;;;;;;5040315;28;20206;-74
2023/03/31 02:10:45;;;;;;;8.15;2.05;;;;;;;;;;5035687;28;20277;-74
2023/03/31 02:13:12;;;;;;;7.60;2.00;;;;;;;;;;5039619;28;20174;-74
2023/03/31 02:15:40;;;;;;;8.30;2.38;;;;;;;;;;5039731;28;20178;-74
2023/03/31 02:18:10;;;;;;;10.95;2.72;;;;;;;;;;5039847;28;20243;-74
2023/03/31 02:20:37;;;;;;;6.28;2.15;;;;;;;;;;5039035;28;20238;-74
2023/03/31 02:23:04;;;;;;;7.28;2.90;;;;;;;;;;5039279;28;20234;-74
2023/03/31 02:25:35;;;;;;;16.67;2.38;;;;;;;;;;5038853;28;20175;-74
2023/03/31 02:28:04;;;;;;;10.55;2.95;;;;;;;;;;5039117;28;20336;-74
2023/03/31 02:30:36;;;;;;;11.05;2.25;;;;;;;;;;5039010;28;20234;-74
2023/03/31 02:33:04;;;;;;;10.80;2.33;;;;;;;;;;5038902;28;20185;-74
2023/03/31 02:35:30;;;;;;;3.92;2.05;;;;;;;;;;5039094;28;20186;-74
2023/03/31 02:37:57;;;;;;;7.93;2.43;;;;;;;;;;5038643;28;20186;-74
2023/03/31 02:40:26;;;;;;;10.10;2.60;;;;;;;;;;5038798;28;20491;-74
2023/03/31 02:42:52;;;;;;;10.65;2.08;;;;;;;;;;5039025;28;20190;-74
2023/03/31 02:45:37;;;;;;;14.77;2.70;;;;;;;;;;5038872;28;20182;-74
2023/03/31 02:48:03;;;;;;;7.45;2.20;;;;;;;;;;5037887;28;20214;-74
2023/03/31 02:50:34;;;;;;;7.10;2.00;;;;;;;;;;5037628;28;20186;-73
2023/03/31 02:53:09;;;;;;;9.30;2.50;;;;;;;;;;5038787;28;20233;-74
2023/03/31 02:55:56;;;;;;;11.15;2.58;;;;;;;;;;5038472;28;20170;-74
2023/03/31 02:58:41;;;;;;;11.77;2.40;;;;;;;;;;5038230;28;20257;-74
2023/03/31 03:01:11;;;;;;;10.77;3.13;;;;;;;;;;5037797;28;20339;-74
2023/03/31 03:03:42;;;;;;;7.88;2.53;;;;;;;;;;5038224;28;20214;-75
2023/03/31 03:06:29;;;;;;;8.13;2.67;;;;;;;;;;5038733;28;20165;-75
2023/03/31 03:09:08;;;;;;;11.73;2.55;;;;;;;;;;5038934;28;20217;-75
2023/03/31 03:11:39;;;;;;;5.28;2.20;;;;;;;;;;5038295;28;20182;-74
2023/03/31 03:14:06;;;;;;;9.73;2.50;;;;;;;;;;5038650;28;20179;-75
2023/03/31 03:16:35;;;;;;;14.32;3.47;;;;;;;;;;5037620;28;20527;-75
2023/03/31 03:19:02;;;;;;;11.98;2.20;;;;;;;;;;5038568;28;20185;-75
2023/03/31 03:21:28;;;;;;;10.57;2.97;;;;;;;;;;5037670;28;20260;-75
2023/03/31 03:23:54;;;;;;;9.77;2.50;;;;;;;;;;5038565;28;20619;-75
2023/03/31 03:26:22;;;;;;;7.67;3.10;;;;;;;;;;5037862;28;20198;-75
2023/03/31 03:28:48;;;;;;;6.25;2.10;;;;;;;;;;5038449;28;20468;-75
2023/03/31 03:31:14;;;;;;;10.63;2.00;;;;;;;;;;5037129;28;20186;-74
2023/03/31 03:33:41;;;;;;;5.80;1.60;;;;;;;;;;5037538;28;20899;-74
2023/03/31 03:36:07;;;;;;;7.15;2.47;;;;;;;;;;5038036;28;20178;-74
2023/03/31 03:38:33;;;;;;;5.55;1.80;;;;;;;;;;5037271;28;20175;-75
2023/03/31 03:40:59;;;;;;;8.10;2.20;;;;;;;;;;5038373;28;20172;-74
2023/03/31 03:43:25;;;;;;;5.60;2.08;;;;;;;;;;5037619;28;20456;-75
2023/03/31 03:45:51;;;;;;;6.73;2.10;;;;;;;;;;5037932;28;20178;-75
2023/03/31 03:48:17;;;;;;;7.72;1.80;;;;;;;;;;5037643;28;20460;-75
2023/03/31 03:50:46;;;;;;;9.05;2.10;;;;;;;;;;5037290;28;20182;-74
2023/03/31 03:53:13;;;;;;;6.68;1.48;;;;;;;;;;5037816;28;20235;-74
2023/03/31 03:55:39;;;;;;;8.85;1.70;;;;;;;;;;5037653;28;20209;-74
2023/03/31 03:58:05;;;;;;;6.65;1.77;;;;;;;;;;5037755;28;20536;-74
2023/03/31 04:00:31;;;;;;;4.73;2.00;;;;;;;;;;5036084;28;20178;-75
2023/03/31 04:02:57;;;;;;;5.90;2.08;;;;;;;;;;5037427;28;20925;-74
2023/03/31 04:05:23;;;;;;;5.60;1.73;;;;;;;;;;5037320;28;20213;-75
2023/03/31 04:07:49;;;;;;;9.50;1.60;;;;;;;;;;5038147;28;20575;-74
2023/03/31 04:10:15;;;;;;;11.00;1.50;;;;;;;;;;5020473;28;20413;-74
2023/03/31 04:12:40;;;;;;;3.25;1.40;;;;;;;;;;5037531;28;20913;-74
2023/03/31 04:15:07;;;;;;;3.73;1.50;;;;;;;;;;5037794;28;20170;-74
2023/03/31 04:17:33;;;;;;;5.70;1.40;;;;;;;;;;5037132;28;20427;-75
2023/03/31 04:20:00;;;;;;;9.73;2.08;;;;;;;;;;5037609;28;20607;-74
2023/03/31 04:22:33;;;;;;;5.95;1.63;;;;;;;;;;5037091;28;20205;-74
2023/03/31 04:24:59;;;;;;;7.75;1.45;;;;;;;;;;5037936;28;20177;-74
2023/03/31 04:27:26;;;;;;;4.20;1.45;;;;;;;;;;5037270;28;20198;-74
2023/03/31 04:29:55;;;;;;;11.82;1.55;;;;;;;;;;5037844;28;20178;-73
2023/03/31 04:32:22;;;;;;;3.05;1.15;;;;;;;;;;5027371;28;20256;-74
2023/03/31 04:34:49;;;;;;;6.47;1.90;;;;;;;;;;5017712;28;20179;-74
2023/03/31 04:37:15;;;;;;;3.80;1.35;;;;;;;;;;5017414;28;20187;-74
2023/03/31 04:39:45;;;;;;;6.57;1.50;;;;;;;;;;5017405;28;20185;-74
2023/03/31 04:42:12;;;;;;;2.38;1.10;;;;;;;;;;5017397;28;20190;-74
2023/03/31 04:44:38;;;;;;;2.63;0.93;;;;;;;;;;5017378;28;20643;-74
2023/03/31 04:47:05;;;;;;;5.60;1.37;;;;;;;;;;5017678;28;20190;-74
2023/03/31 04:49:32;;;;;;;3.35;0.90;;;;;;;;;;5016483;28;20426;-73
2023/03/31 04:51:58;;;;;;;6.30;1.20;;;;;;;;;;5017265;28;20670;-74
2023/03/31 04:54:24;;;;;;;3.75;1.35;;;;;;;;;;5017190;28;20170;-74
2023/03/31 04:56:50;;;;;;;4.13;1.17;;;;;;;;;;5017662;28;20178;-74
2023/03/31 04:59:16;;;;;;;4.43;1.70;;;;;;;;;;5017465;28;20179;-74
2023/03/31 05:01:44;;;;;;;3.40;1.50;;;;;;;;;;5016688;28;20540;-74
2023/03/31 05:04:10;;;;;;;6.97;1.35;;;;;;;;;;5017121;28;20448;-74
2023/03/31 05:06:36;;;;;;;6.03;2.23;;;;;;;;;;5017230;28;20182;-74
2023/03/31 05:09:02;;;;;;;1.80;0.90;;;;;;;;;;5017509;28;20919;-74
2023/03/31 05:11:28;;;;;;;8.57;1.65;;;;;;;;;;5016924;28;20441;-74
2023/03/31 05:13:54;;;;;;;3.33;1.23;;;;;;;;;;5020628;28;20640;-74
2023/03/31 05:16:20;;;;;;;1.33;0.85;;;;;;;;;;5031103;28;20412;-74
2023/03/31 05:18:47;;;;;;;1.88;0.98;;;;;;;;;;5040680;28;20305;-74
2023/03/31 05:21:14;;;;;;;1.85;1.00;;;;;;;;;;5040922;28;20194;-74
2023/03/31 05:23:40;;;;;;;5.43;1.20;;;;;;;;;;5040057;28;20654;-74
2023/03/31 05:26:07;;;;;;;2.95;0.93;;;;;;;;;;5040691;28;20691;-74
2023/03/31 05:28:34;;;;;;;5.35;0.98;;;;;;;;;;5040463;28;20241;-74
2023/03/31 05:31:00;;;;;;;4.88;2.42;;;;;;;;;;5040219;28;20213;-74
2023/03/31 05:33:26;;;;;;;4.75;1.25;;;;;;;;;;5040828;28;20170;-74
2023/03/31 05:35:52;;;;;;;5.18;1.33;;;;;;;;;;5040829;28;20209;-74
2023/03/31 05:38:18;;;;;;;3.20;1.00;;;;;;;;;;5040909;28;20543;-74
2023/03/31 05:40:44;;;;;;;2.87;1.27;;;;;;;;;;5040109;28;20405;-74
2023/03/31 05:43:10;;;;;;;4.75;0.80;;;;;;;;;;5040430;28;20470;-74
2023/03/31 05:45:36;;;;;;;1.40;0.83;;;;;;;;;;5040686;28;20209;-74
2023/03/31 05:48:02;;;;;;;3.93;1.43;;;;;;;;;;5040641;28;20468;-74
2023/03/31 05:50:28;;;;;;;2.90;1.13;;;;;;;;;;5040351;28;20413;-75
2023/03/31 05:52:54;;;;;;;4.27;1.70;;;;;;;;;;5040748;28;20245;-74
2023/03/31 05:55:20;;;;;;;1.63;0.80;;;;;;;;;;5040705;28;20433;-74
2023/03/31 05:57:46;;;;;;;4.72;1.08;;;;;;;;;;5039839;28;20413;-74
2023/03/31 06:00:13;;;;;;;1.27;0.80;;;;;;;;;;5040163;28;20258;-74
2023/03/31 06:02:40;;;;;;;2.75;1.00;;;;;;;;;;5039600;28;20622;-74
2023/03/31 06:05:06;;;;;;;1.80;0.70;;;;;;;;;;5040497;28;20182;-74
2023/03/31 06:07:32;;;;;;;2.10;0.82;;;;;;;;;;5040101;28;20208;-74
2023/03/31 06:09:58;;;;;;;1.23;0.70;;;;;;;;;;5039877;28;20265;-74
2023/03/31 06:12:24;;;;;;;2.60;0.90;;;;;;;;;;5040168;28;20416;-74
2023/03/31 06:14:50;;;;;;;3.05;0.98;;;;;;;;;;5039638;28;20416;-74
2023/03/31 06:17:16;;;;;;;1.70;0.80;;;;;;;;;;5039815;28;20630;-74
2023/03/31 06:19:42;;;;;;;1.65;1.02;;;;;;;;;;5039870;28;20455;-74
2023/03/31 06:22:08;;;;;;;3.07;1.03;;;;;;;;;;5039719;28;20178;-74
2023/03/31 06:24:34;;;;;;;1.97;0.70;;;;;;;;;;5038761;28;20409;-74
2023/03/31 06:27:00;;;;;;;1.63;0.80;;;;;;;;;;5040099;28;20421;-74
2023/03/31 06:29:26;;;;;;;0.98;0.77;;;;;;;;;;5039566;28;20449;-74
2023/03/31 06:31:52;;;;;;;1.65;0.77;;;;;;;;;;5039634;28;20185;-74
2023/03/31 06:34:18;;;;;;;1.20;0.90;;;;;;;;;;5039903;28;20186;-74
2023/03/31 06:36:44;;;;;;;0.90;0.60;;;;;;;;;;5029993;28;20401;-74
2023/03/31 06:39:10;;;;;;;2.65;0.90;;;;;;;;;;5019891;28;20195;-74
2023/03/31 06:41:37;;;;;;;0.67;0.53;;;;;;;;;;5019313;28;20233;-74
2023/03/31 06:44:03;;;;;;;2.83;0.75;;;;;;;;;;5019782;28;20402;-74
2023/03/31 06:46:29;;;;;;;1.23;0.70;;;;;;;;;;5018665;28;20175;-75
2023/03/31 06:48:56;;;;;;;1.10;0.70;;;;;;;;;;5019770;28;20462;-74
2023/03/31 06:51:22;;;;;;;1.00;0.70;;;;;;;;;;5019466;28;20183;-75
2023/03/31 06:53:47;;;;;;;0.90;0.60;;;;;;;;;;5019227;28;20186;-75
2023/03/31 06:56:13;;;;;;;1.17;0.60;;;;;;;;;;5018524;28;20583;-79
2023/03/31 06:58:39;;;;;;;1.35;0.70;;;;;;;;;;5017918;28;20402;-77
2023/03/31 07:01:06;;;;;;;1.10;0.60;;;;;;;;;;5017987;28;20201;-78
2023/03/31 07:03:32;;;;;;;1.33;0.70;;;;;;;;;;5017931;28;20936;-78
2023/03/31 07:05:58;;;;;;;0.70;0.60;;;;;;;;;;5022687;28;20209;-78
2023/03/31 07:08:24;;;;;;;3.63;0.83;;;;;;;;;;5028816;28;20213;-78
2023/03/31 07:10:54;;;;;;;1.30;0.80;;;;;;;;;;5037333;28;20881;-77
2023/03/31 07:13:20;;;;;;;2.95;1.50;;;;;;;;;;5037373;28;20190;-78
2023/03/31 07:15:49;;;;;;;0.97;0.70;;;;;;;;;;5037689;28;20259;-77
2023/03/31 07:18:16;;;;;;;2.70;0.88;;;;;;;;;;5038039;28;20445;-77
2023/03/31 07:20:42;;;;;;;0.80;0.60;;;;;;;;;;5037532;28;20189;-78
2023/03/31 07:23:09;;;;;;;4.82;0.85;;;;;;;;;;5038009;28;20537;-77
2023/03/31 07:25:35;;;;;;;1.80;0.70;;;;;;;;;;5036951;28;20235;-78
2023/03/31 07:28:02;;;;;;;1.60;0.80;;;;;;;;;;5037478;28;20297;-78
2023/03/31 07:30:28;;;;;;;1.00;0.80;;;;;;;;;;5037389;28;20212;-77
2023/03/31 07:32:54;;;;;;;1.43;1.00;;;;;;;;;;5037471;28;20173;-77
2023/03/31 07:35:21;;;;;;;2.13;0.70;;;;;;;;;;5037600;28;20842;-77
2023/03/31 07:37:48;;;;;;;2.10;0.87;;;;;;;;;;5037487;28;20193;-77
2023/03/31 07:40:16;;;;;;;5.85;0.77;;;;;;;;;;5038343;28;20483;-77
2023/03/31 07:42:43;;;;;;;1.10;0.70;;;;;;;;;;5037409;28;20725;-78
2023/03/31 07:45:10;;;;;;;1.80;0.80;;;;;;;;;;5038032;28;20408;-77
2023/03/31 07:47:37;;;;;;;3.93;1.33;;;;;;;;;;5036974;28;20212;-78
2023/03/31 07:50:03;;;;;;;2.05;0.95;;;;;;;;;;5037072;28;20847;-77
2023/03/31 07:52:29;;;;;;;6.50;1.10;;;;;;;;;;5033448;28;20207;-78
2023/03/31 07:54:55;;;;;;;3.03;1.50;;;;;;;;;;5031699;28;20416;-77
2023/03/31 07:57:21;;;;;;;2.53;1.33;;;;;;;;;;5037409;28;20409;-78
2023/03/31 07:59:47;;;;;;;3.30;1.23;;;;;;;;;;5037057;28;20445;-77
2023/03/31 08:02:14;;;;;;;4.00;0.80;;;;;;;;;;5037332;28;20448;-77
2023/03/31 08:04:41;;;;;;;6.30;1.50;;;;;;;;;;5036419;28;20421;-77
2023/03/31 08:07:07;;;;;;;2.60;1.40;;;;;;;;;;5037209;28;20413;-76
2023/03/31 08:09:34;;;;;;;2.33;0.80;;;;;;;;;;5037270;28;20413;-77
2023/03/31 08:12:00;;;;;;;6.53;2.17;;;;;;;;;;5037328;28;20919;-77
2023/03/31 08:14:26;;;;;;;3.40;1.40;;;;;;;;;;5038081;28;20409;-77
2023/03/31 08:16:54;;;;;;;7.73;1.80;;;;;;;;;;5037297;28;20439;-77
2023/03/31 08:19:21;;;;;;;4.80;1.60;;;;;;;;;;5037224;28;20421;-77
2023/03/31 08:21:47;;;;;;;3.50;1.27;;;;;;;;;;5037064;28;20495;-77
2023/03/31 08:24:12;;;;;;;5.03;1.43;;;;;;;;;;5037622;28;20878;-76
2023/03/31 08:26:40;;;;;;;6.43;1.40;;;;;;;;;;5036567;28;20444;-78
2023/03/31 08:29:06;;;;;;;5.23;1.47;;;;;;;;;;5037216;28;20456;-77
2023/03/31 08:31:32;;;;;;;7.77;1.60;;;;;;;;;;5037039;28;20421;-77
2023/03/31 08:33:58;;;;;;;7.90;1.77;;;;;;;;;;5037322;28;20869;-77
2023/03/31 08:36:24;;;;;;;5.60;2.30;;;;;;;;;;5037052;28;20405;-78
2023/03/31 08:38:50;;;;;;;5.73;1.90;;;;;;;;;;5037123;28;20408;-77
2023/03/31 08:41:26;;;;;;;3.20;1.47;;;;;;;;;;5037287;28;20409;-77
2023/03/31 08:43:54;;;;;;;6.50;1.57;;;;;;;;;;5036988;28;20412;-77
2023/03/31 08:46:20;;;;;;;8.13;2.40;;;;;;;;;;5036404;28;20416;-77
2023/03/31 08:48:49;;;;;;;3.73;1.80;;;;;;;;;;5039782;28;20975;-77
2023/03/31 08:51:20;;;;;;;12.37;2.00;;;;;;;;;;5040615;28;20456;-77
2023/03/31 08:54:06;;;;;;;7.20;2.60;;;;;;;;;;5040291;28;20409;-78
2023/03/31 08:56:37;;;;;;;5.40;2.07;;;;;;;;;;5040805;28;20404;-77
2023/03/31 08:59:03;;;;;;;9.10;1.67;;;;;;;;;;5041177;28;20393;-77
2023/03/31 09:01:29;;;;;;;6.43;1.80;;;;;;;;;;5040796;28;20439;-77
2023/03/31 09:04:05;;;;;;;5.60;1.63;;;;;;;;;;5040497;28;20380;-77
2023/03/31 09:06:52;;;;;;;5.20;1.30;;;;;;;;;;5040354;28;20387;-77
2023/03/31 09:09:29;;;;;;;6.00;1.70;;;;;;;;;;5040419;28;20517;-77
2023/03/31 09:11:58;;;;;;;6.37;1.57;;;;;;;;;;5041021;28;20394;-77
2023/03/31 09:14:40;;;;;;;4.10;1.90;;;;;;;;;;5040481;28;20403;-77
2023/03/31 09:17:20;;;;;;;4.23;1.40;;;;;;;;;;5040341;28;20411;-78
2023/03/31 09:19:55;;;;;;;8.73;2.10;;;;;;;;;;5039701;28;20409;-78
2023/03/31 09:22:23;;;;;;;7.97;1.80;;;;;;;;;;5040072;28;20474;-78
2023/03/31 09:25:09;;;;;;;5.67;2.00;;;;;;;;;;5040346;28;20404;-77
2023/03/31 09:27:36;;;;;;;8.57;1.80;;;;;;;;;;5039991;28;20464;-77
2023/03/31 09:30:14;;;;;;;7.33;2.20;;;;;;;;;;5040252;28;20519;-78
2023/03/31 09:32:41;;;;;;;4.23;1.20;;;;;;;;;;5039963;28;20905;-77
2023/03/31 09:35:21;;;;;;;3.80;1.80;;;;;;;;;;5040010;28;20842;-77
2023/03/31 09:37:48;;;;;;;7.80;1.47;;;;;;;;;;5039917;28;20413;-77
2023/03/31 09:40:16;;;;;;;8.23;2.00;;;;;;;;;;5038752;28;20431;-77
2023/03/31 09:42:42;;;;;;;5.53;1.57;;;;;;;;;;5023663;28;20505;-77
2023/03/31 09:45:15;;;;;;;5.60;2.40;;;;;;;;;;5022873;28;20951;-77
2023/03/31 09:47:43;;;;;;;10.17;2.77;;;;;;;;;;5038948;28;20818;-77
2023/03/31 09:50:10;;;;;;;3.50;1.70;;;;;;;;;;5022629;28;20418;-77
2023/03/31 09:52:45;;;;;;;6.13;2.60;;;;;;;;;;5024344;28;20484;-78
2023/03/31 09:55:20;;;;;;;4.30;2.20;;;;;;;;;;5039795;28;20412;-77
2023/03/31 09:57:46;;;;;;;6.70;2.27;;;;;;;;;;5021348;28;20904;-77
2023/03/31 10:00:15;;;;;;;8.03;3.17;;;;;;;;;;5039907;28;20421;-77
2023/03/31 10:02:50;;;;;;;8.57;2.00;;;;;;;;;;5038960;28;20513;-77
2023/03/31 10:05:25;;;;;;;10.77;2.60;;;;;;;;;;5039322;28;20509;-77
2023/03/31 10:07:52;;;;;;;6.70;2.57;;;;;;;;;;5039683;28;20982;-78
2023/03/31 10:10:26;;;;;;;5.30;1.90;;;;;;;;;;5039747;28;20409;-77
2023/03/31 10:12:52;;;;;;;7.20;1.93;;;;;;;;;;5038878;28;20401;-77
2023/03/31 10:15:20;;;;;;;8.20;1.93;;;;;;;;;;5039605;28;20409;-78
2023/03/31 10:17:46;;;;;;;9.07;2.47;;;;;;;;;;5039499;28;20451;-77
2023/03/31 10:20:25;;;;;;;13.70;2.30;;;;;;;;;;5039672;28;20468;-77
2023/03/31 10:22:51;;;;;;;5.53;2.13;;;;;;;;;;5039025;28;20458;-77
2023/03/31 10:25:21;;;;;;;8.43;2.30;;;;;;;;;;5039388;28;20413;-77
2023/03/31 10:27:48;;;;;;;7.30;2.00;;;;;;;;;;5038770;28;20452;-78
2023/03/31 10:30:17;;;;;;;11.43;2.13;;;;;;;;;;5039125;28;20403;-77
2023/03/31 10:32:44;;;;;;;9.43;1.70;;;;;;;;;;5038583;28;20404;-78
2023/03/31 10:35:19;;;;;;;3.90;1.70;;;;;;;;;;5039392;28;20598;-77
2023/03/31 10:37:47;;;;;;;8.60;2.27;;;;;;;;;;5039003;28;20409;-77
2023/03/31 10:40:21;;;;;;;4.53;1.80;;;;;;;;;;5039777;28;20401;-77
2023/03/31 10:42:49;;;;;;;6.07;2.13;;;;;;;;;;5038366;28;20498;-77
2023/03/31 10:45:15;;;;;;;6.70;2.00;;;;;;;;;;5039193;28;20406;-77
2023/03/31 10:47:53;;;;;;;7.30;2.70;;;;;;;;;;5038607;28;21017;-77
2023/03/31 10:50:19;;;;;;;7.10;1.53;;;;;;;;;;5039032;28;20451;-77
2023/03/31 10:52:46;;;;;;;6.20;1.70;;;;;;;;;;5038501;28;20873;-77
2023/03/31 10:55:13;;;;;;;3.53;1.73;;;;;;;;;;5038947;28;20401;-77
2023/03/31 10:57:46;;;;;;;9.40;2.20;;;;;;;;;;5038362;28;20915;-77
2023/03/31 11:00:20;;;;;;;5.83;2.10;;;;;;;;;;5038696;28;20474;-77
2023/03/31 11:02:53;;;;;;;3.30;1.30;;;;;;;;;;5038744;28;20464;-78
2023/03/31 11:05:57;;;;;;;5.80;1.70;;;;;;;;;;5039067;28;20483;-77
2023/03/31 11:08:42;;;;;;;4.83;1.37;;;;;;;;;;4958768;29;20460;-77
2023/03/31 11:11:23;;;;;;;8.40;1.50;;;;;;;;;;4958337;28;20412;-77
2023/03/31 11:13:57;;;;;;;5.17;1.40;;;;;;;;;;5014854;28;20432;-77
2023/03/31 11:16:29;;;;;;;4.17;1.13;;;;;;;;;;5038674;28;20421;-77
2023/03/31 11:19:02;;;;;;;2.80;1.60;;;;;;;;;;5038441;28;20413;-77
2023/03/31 11:21:47;;;;;;;3.23;1.13;;;;;;;;;;5038453;28;20456;-77
2023/03/31 11:24:30;;;;;;;3.07;1.17;;;;;;;;;;5038254;28;20407;-77
2023/03/31 11:27:15;;;;;;;7.17;1.67;;;;;;;;;;5038031;28;20834;-77
2023/03/31 11:29:51;;;;;;;6.40;1.30;;;;;;;;;;5037880;28;20439;-77
2023/03/31 11:32:43;;;;;;;3.50;1.47;;;;;;;;;;5038295;28;20543;-77
2023/03/31 11:35:13;;;;;;;6.20;1.57;;;;;;;;;;5020542;28;20424;-77
2023/03/31 11:37:44;;;;;;;8.17;1.90;;;;;;;;;;5038026;28;20421;-77
2023/03/31 11:40:25;;;;;;;7.20;1.83;;;;;;;;;;5037953;28;20416;-77
2023/03/31 11:42:54;;;;;;;10.50;2.33;;;;;;;;;;5037472;28;20496;-77
2023/03/31 11:45:41;;;;;;;7.33;2.30;;;;;;;;;;5038013;28;20819;-77
2023/03/31 11:48:14;;;;;;;12.70;2.30;;;;;;;;;;5038131;28;20502;-77
2023/03/31 11:50:41;;;;;;;3.87;1.10;;;;;;;;;;5038076;28;20409;-76
2023/03/31 11:53:11;;;;;;;9.87;2.50;;;;;;;;;;5037866;28;20412;-76
2023/03/31 11:55:37;;;;;;;11.60;2.30;;;;;;;;;;5037971;28;20412;-76
2023/03/31 11:58:39;;;;;;;7.27;2.50;;;;;;;;;;5037379;28;20909;-77
2023/03/31 12:01:14;;;;;;;7.27;1.70;;;;;;;;;;4956367;28;20427;-76
2023/03/31 12:03:40;;;;;;;9.80;2.23;;;;;;;;;;5009255;28;20417;-77
2023/03/31 12:06:15;;;;;;;5.90;1.97;;;;;;;;;;5017799;28;20790;-76
2023/03/31 12:08:46;;;;;;;10.03;2.50;;;;;;;;;;5017621;28;20491;-76
2023/03/31 12:11:14;;;;;;;3.80;1.57;;;;;;;;;;5017781;28;20456;-76
2023/03/31 12:13:45;;;;;;;6.80;1.50;;;;;;;;;;5017732;28;20406;-76
2023/03/31 12:16:23;;;;;;;2.80;1.23;;;;;;;;;;5017458;28;20441;-76
2023/03/31 12:18:57;;;;;;;5.10;1.50;;;;;;;;;;5017083;28;20413;-77
2023/03/31 12:21:25;;;;;;;7.90;2.40;;;;;;;;;;5016440;28;20408;-77
2023/03/31 12:23:51;;;;;;;11.03;2.03;;;;;;;;;;5017105;28;20404;-76
2023/03/31 12:26:37;;;;;;;6.73;1.87;;;;;;;;;;5017614;28;20514;-77
2023/03/31 12:29:06;;;;;;;8.03;2.70;;;;;;;;;;5017280;28;20457;-77
2023/03/31 12:31:32;;;;;;;3.40;1.40;;;;;;;;;;5017669;28;20429;-77
2023/03/31 12:34:00;;;;;;;4.80;1.60;;;;;;;;;;5016629;28;20417;-76
2023/03/31 12:36:35;;;;;;;9.33;2.67;;;;;;;;;;5017439;28;20777;-77
2023/03/31 12:39:01;;;;;;;5.47;1.73;;;;;;;;;;5017333;28;20818;-77
2023/03/31 12:41:30;;;;;;;6.40;1.77;;;;;;;;;;5017485;28;20460;-77
2023/03/31 12:44:01;;;;;;;8.17;1.70;;;;;;;;;;5016408;28;20467;-77
2023/03/31 12:46:46;;;;;;;10.93;2.10;;;;;;;;;;5017410;28;20417;-76
2023/03/31 12:49:41;;;;;;;7.70;1.73;;;;;;;;;;5016874;28;20468;-76
2023/03/31 12:52:26;;;;;;;4.07;1.43;;;;;;;;;;5004500;28;20426;-76
2023/03/31 12:54:52;;;;;;;7.57;1.77;;;;;;;;;;5016802;28;20424;-76
2023/03/31 12:57:22;;;;;;;6.50;1.63;;;;;;;;;;5017222;28;20406;-76
2023/03/31 13:00:09;;;;;;;4.97;1.30;;;;;;;;;;5017285;28;20406;-77
2023/03/31 13:02:36;;;;;;;9.40;1.63;;;;;;;;;;5031160;28;20554;-76
2023/03/31 13:05:20;;;;;;;4.40;1.73;;;;;;;;;;5036680;28;20397;-77
2023/03/31 13:07:46;;;;;;;5.57;1.50;;;;;;;;;;5036342;28;20541;-77
2023/03/31 13:10:20;;;;;;;7.60;1.60;;;;;;;;;;5033974;28;20404;-77
2023/03/31 13:13:03;;;;;;;9.97;2.07;;;;;;;;;;5021493;28;20484;-77
2023/03/31 13:15:30;;;;;;;5.53;1.63;;;;;;;;;;5016586;28;20406;-76
2023/03/31 13:18:00;;;;;;;5.40;1.70;;;;;;;;;;5016119;28;20406;-77
2023/03/31 13:20:30;;;;;;;4.03;1.40;;;;;;;;;;5016911;28;20394;-77
2023/03/31 13:23:04;;;;;;;3.40;1.33;;;;;;;;;;5016520;28;20405;-77
2023/03/31 13:25:30;;;;;;;4.30;1.33;;;;;;;;;;5015819;28;20398;-77
2023/03/31 13:27:58;;;;;;;10.00;1.90;;;;;;;;;;5016123;28;20461;-77
2023/03/31 13:30:36;;;;;;;8.33;2.57;;;;;;;;;;5016798;28;20481;-76
2023/03/31 13:33:04;;;;;;;6.30;1.73;;;;;;;;;;5016524;28;20409;-77
2023/03/31 13:35:32;;;;;;;6.00;1.87;;;;;;;;;;5020399;28;20394;-76
2023/03/31 13:38:17;;;;;;;7.53;1.90;;;;;;;;;;5020066;28;20940;-77
2023/03/31 13:40:43;;;;;;;5.13;1.00;;;;;;;;;;5019400;28;20409;-76
2023/03/31 13:43:18;;;;;;;7.03;1.13;;;;;;;;;;5020253;28;20414;-78
2023/03/31 13:45:56;;;;;;;4.53;1.30;;;;;;;;;;5020256;28;20453;-77
2023/03/31 13:48:28;;;;;;;2.00;1.13;;;;;;;;;;5019201;28;20465;-77
2023/03/31 13:50:54;;;;;;;1.77;0.97;;;;;;;;;;5018964;28;20410;-77
2023/03/31 13:53:20;;;;;;;3.70;1.20;;;;;;;;;;5019810;28;20509;-79
2023/03/31 13:55:50;;;;;;;1.80;0.80;;;;;;;;;;5018761;28;20444;-77
2023/03/31 13:58:31;;;;;;;2.63;1.03;;;;;;;;;;5019510;28;20421;-76
2023/03/31 14:01:16;;;;;;;3.40;1.10;;;;;;;;;;5019602;28;20425;-76
2023/03/31 14:04:00;;;;;;;3.67;1.23;;;;;;;;;;5018994;28;20485;-77
2023/03/31 14:06:38;;;;;;;0.80;0.60;;;;;;;;;;5019656;28;20453;-76
2023/03/31 14:09:12;;;;;;;3.93;1.17;;;;;;;;;;5017338;28;20454;-78
2023/03/31 14:11:38;;;;;;;4.03;1.30;;;;;;;;;;5021901;28;20422;-78
2023/03/31 14:14:12;;;;;;;4.00;1.07;;;;;;;;;;5025914;28;20421;-78
2023/03/31 14:16:40;;;;;;;1.60;0.80;;;;;;;;;;5018552;28;20398;-78
2023/03/31 14:19:15;;;;;;;4.50;1.00;;;;;;;;;;5018739;28;20445;-78
2023/03/31 14:21:45;;;;;;;1.53;0.90;;;;;;;;;;5019101;28;20770;-78
2023/03/31 14:24:20;;;;;;;1.57;0.70;;;;;;;;;;5018443;28;20408;-78
2023/03/31 14:27:24;;;;;;;3.50;1.20;;;;;;;;;;5020022;28;20405;-78
2023/03/31 14:29:59;;;;;;;2.20;1.20;;;;;;;;;;4958737;28;20436;-78
2023/03/31 14:32:33;;;;;;;2.00;1.00;;;;;;;;;;5010254;28;20429;-78
2023/03/31 14:35:04;;;;;;;1.60;0.93;;;;;;;;;;5019010;28;20770;-78
2023/03/31 14:37:31;;;;;;;4.70;1.10;;;;;;;;;;5019044;28;20436;-78
2023/03/31 14:39:57;;;;;;;1.73;1.20;;;;;;;;;;5017639;28;20766;-78
2023/03/31 14:42:27;;;;;;;4.67;1.10;;;;;;;;;;5018960;28;20554;-78
2023/03/31 14:44:57;;;;;;;3.10;1.10;;;;;;;;;;5017729;28;20503;-78
2023/03/31 14:47:25;;;;;;;5.83;1.33;;;;;;;;;;5017874;28;20409;-78
2023/03/31 14:50:01;;;;;;;2.80;1.27;;;;;;;;;;5018604;28;20824;-78
2023/03/31 14:52:29;;;;;;;4.20;1.40;;;;;;;;;;5018952;28;20390;-78
2023/03/31 14:54:55;;;;;;;4.80;1.17;;;;;;;;;;5017901;28;20525;-78
2023/03/31 14:57:32;;;;;;;7.70;1.03;;;;;;;;;;5018274;28;20413;-78